Time;durP1;ratioP1;P1;durP2;ratioP2;P2;SDS_P1;SDS_P2;PMS_P1;PMS_P2;Temp;Humidity;BMP_temperature;BMP_pressure;BME280_temperature;BME280_humidity;BME280_pressure;Samples;Min_cycle;Max_cycle;Signal;HPM_P1;HPM_P2
2022/07/27 00:00:22;;;;;;;4.10;1.83;;;13.10;99.90;;;;;;4840969;29;20451;-66
2022/07/27 00:02:49;;;;;;;3.65;1.50;;;13.10;99.90;;;;;;4837998;29;20046;-65
2022/07/27 00:05:14;;;;;;;4.20;1.20;;;13.10;99.90;;;;;;4839862;29;20072;-66
2022/07/27 00:07:40;;;;;;;3.88;1.73;;;13.10;99.90;;;;;;4838788;29;20148;-66
2022/07/27 00:10:06;;;;;;;3.38;1.52;;;13.10;99.90;;;;;;4839278;29;20062;-65
2022/07/27 00:12:31;;;;;;;4.05;1.40;;;13.00;99.90;;;;;;4835232;29;20093;-65
2022/07/27 00:14:58;;;;;;;3.25;1.42;;;13.00;99.90;;;;;;4841082;29;20530;-66
2022/07/27 00:17:26;;;;;;;3.95;1.48;;;13.00;99.90;;;;;;4841464;29;20132;-66
2022/07/27 00:19:52;;;;;;;3.20;1.63;;;12.90;99.90;;;;;;4835920;29;20087;-65
2022/07/27 00:22:18;;;;;;;4.20;1.42;;;13.00;99.90;;;;;;4837576;29;20223;-67
2022/07/27 00:24:44;;;;;;;2.08;1.38;;;13.00;99.90;;;;;;4839814;29;20468;-65
2022/07/27 00:27:09;;;;;;;2.22;1.55;;;13.00;99.90;;;;;;4841605;29;20086;-64
2022/07/27 00:29:35;;;;;;;1.90;1.30;;;13.00;99.90;;;;;;4839794;29;20054;-66
2022/07/27 00:32:01;;;;;;;5.10;1.88;;;13.00;99.90;;;;;;4841310;29;20463;-65
2022/07/27 00:34:27;;;;;;;3.67;1.60;;;13.10;99.90;;;;;;4838792;29;20053;-66
2022/07/27 00:36:52;;;;;;;3.30;1.65;;;13.10;99.90;;;;;;4838453;29;20045;-66
2022/07/27 00:39:18;;;;;;;4.55;1.63;;;13.10;99.90;;;;;;4836056;29;20046;-66
2022/07/27 00:41:44;;;;;;;2.22;1.40;;;13.20;99.90;;;;;;4841829;29;20396;-66
2022/07/27 00:44:11;;;;;;;2.13;1.58;;;13.30;99.90;;;;;;4836328;29;20129;-65
2022/07/27 00:46:37;;;;;;;3.15;1.75;;;13.20;99.90;;;;;;4841555;29;20050;-65
2022/07/27 00:49:03;;;;;;;3.40;1.90;;;13.20;99.90;;;;;;4838306;29;20069;-65
2022/07/27 00:51:29;;;;;;;3.50;1.65;;;13.20;99.90;;;;;;4822980;29;20060;-65
2022/07/27 00:53:55;;;;;;;1.98;1.73;;;13.10;99.90;;;;;;4841267;29;20152;-66
2022/07/27 00:56:22;;;;;;;4.10;1.65;;;13.10;99.90;;;;;;4841443;29;20046;-65
2022/07/27 00:58:50;;;;;;;3.07;1.60;;;13.00;99.90;;;;;;4806901;29;1049034;-66
2022/07/27 01:01:17;;;;;;;3.28;1.70;;;13.00;99.90;;;;;;4845206;29;20129;-66
2022/07/27 01:03:43;;;;;;;3.10;1.63;;;12.90;99.90;;;;;;4841318;29;20594;-65
2022/07/27 01:06:09;;;;;;;4.38;2.08;;;12.90;99.90;;;;;;4844100;29;20065;-65
2022/07/27 01:08:36;;;;;;;3.10;1.67;;;12.90;99.90;;;;;;4838222;29;20133;-65
2022/07/27 01:11:02;;;;;;;3.50;1.50;;;12.90;99.90;;;;;;4827448;29;20448;-65
2022/07/27 01:13:28;;;;;;;5.22;1.55;;;12.90;99.90;;;;;;4849196;29;20212;-66
2022/07/27 01:15:54;;;;;;;2.05;1.70;;;12.90;99.90;;;;;;4845375;29;20081;-66
2022/07/27 01:18:37;;;;;;;3.08;1.90;;;12.90;99.90;;;;;;4843102;29;20061;-65
2022/07/27 01:21:05;;;;;;;1.98;1.58;;;12.90;99.90;;;;;;4843815;29;20050;-66
2022/07/27 01:23:32;;;;;;;1.98;1.70;;;12.90;99.90;;;;;;4843407;29;20054;-66
2022/07/27 01:25:59;;;;;;;4.40;2.10;;;12.90;99.90;;;;;;4843464;29;20049;-65
2022/07/27 01:28:25;;;;;;;4.18;1.75;;;12.90;99.90;;;;;;4843466;29;20058;-66
2022/07/27 01:30:51;;;;;;;3.28;2.05;;;12.90;99.90;;;;;;4844845;29;20058;-66
2022/07/27 01:33:17;;;;;;;4.60;1.73;;;12.90;99.90;;;;;;4843350;29;20083;-65
2022/07/27 01:35:42;;;;;;;4.93;1.90;;;13.00;99.90;;;;;;4844150;29;20085;-66
2022/07/27 01:38:09;;;;;;;3.08;1.70;;;12.90;99.90;;;;;;4842453;29;20054;-65
2022/07/27 01:40:35;;;;;;;3.30;1.88;;;13.00;99.90;;;;;;4843554;29;20511;-65
2022/07/27 01:43:02;;;;;;;3.20;1.80;;;12.90;99.90;;;;;;4843576;29;20085;-65
2022/07/27 01:45:28;;;;;;;4.35;2.50;;;12.90;99.90;;;;;;4845094;29;20126;-66
2022/07/27 01:47:54;;;;;;;2.28;1.70;;;12.90;99.90;;;;;;4843072;29;20506;-66
2022/07/27 01:50:19;;;;;;;2.67;1.92;;;12.80;99.90;;;;;;4842574;29;20093;-66
2022/07/27 01:52:45;;;;;;;2.75;1.75;;;12.80;99.90;;;;;;4844164;29;20483;-66
2022/07/27 01:55:11;;;;;;;3.42;2.17;;;12.80;99.90;;;;;;4843060;29;20415;-66
2022/07/27 01:57:37;;;;;;;4.03;1.85;;;12.80;99.90;;;;;;4842679;29;20062;-66
2022/07/27 02:00:05;;;;;;;4.95;2.17;;;12.80;99.90;;;;;;4843141;29;20094;-66
2022/07/27 02:02:31;;;;;;;2.75;2.00;;;12.70;99.90;;;;;;4843654;29;20045;-66
2022/07/27 02:04:56;;;;;;;3.28;1.90;;;12.70;99.90;;;;;;4842549;29;20054;-65
2022/07/27 02:07:22;;;;;;;4.50;2.00;;;12.90;99.90;;;;;;4839413;29;20042;-66
2022/07/27 02:09:48;;;;;;;3.30;1.80;;;12.60;99.90;;;;;;4844599;29;20061;-66
2022/07/27 02:14:58;;;;;;;3.40;1.90;;;12.50;99.90;;;;;;4842897;29;20133;-66
2022/07/27 02:17:23;;;;;;;3.03;2.00;;;12.40;99.90;;;;;;4843352;29;20132;-66
2022/07/27 02:19:49;;;;;;;5.78;2.05;;;12.40;99.90;;;;;;4842484;29;20049;-66
2022/07/27 02:22:14;;;;;;;4.10;2.00;;;12.30;99.90;;;;;;4838038;29;20062;-65
2022/07/27 02:24:40;;;;;;;5.20;2.25;;;12.30;99.90;;;;;;4841121;29;20504;-66
2022/07/27 02:27:05;;;;;;;2.97;1.85;;;12.20;99.90;;;;;;4843283;29;20551;-65
2022/07/27 02:29:31;;;;;;;4.20;1.85;;;12.20;99.90;;;;;;4844337;29;20042;-65
2022/07/27 02:31:57;;;;;;;1.75;1.60;;;12.20;99.90;;;;;;4843091;29;20079;-66
2022/07/27 02:34:22;;;;;;;2.80;1.88;;;12.10;99.90;;;;;;4843497;29;20060;-66
2022/07/27 02:36:48;;;;;;;5.22;2.10;;;12.00;99.90;;;;;;4841367;29;20082;-67
2022/07/27 02:39:13;;;;;;;3.28;1.70;;;12.00;99.90;;;;;;4843234;29;20091;-66
2022/07/27 02:41:39;;;;;;;4.20;1.98;;;11.90;99.90;;;;;;4842191;29;20067;-66
2022/07/27 02:44:05;;;;;;;2.78;1.90;;;11.80;99.90;;;;;;4841677;29;20066;-65
2022/07/27 02:46:30;;;;;;;4.43;1.85;;;11.80;99.90;;;;;;4839111;29;20048;-66
2022/07/27 02:48:56;;;;;;;2.75;1.80;;;11.80;99.90;;;;;;4837109;29;20049;-65
2022/07/27 02:51:21;;;;;;;2.78;1.90;;;11.80;99.90;;;;;;4836258;29;20054;-66
2022/07/27 02:53:47;;;;;;;3.45;2.00;;;11.70;99.90;;;;;;4825731;29;20108;-66
2022/07/27 02:56:12;;;;;;;5.00;2.30;;;11.70;99.90;;;;;;4840410;29;20129;-65
2022/07/27 02:58:38;;;;;;;3.25;1.73;;;11.70;99.90;;;;;;4840061;29;20186;-66
2022/07/27 03:01:04;;;;;;;3.63;2.10;;;11.70;99.90;;;;;;4842540;29;20480;-66
2022/07/27 03:03:30;;;;;;;5.93;2.17;;;11.70;99.90;;;;;;4842051;29;20073;-66
2022/07/27 03:05:55;;;;;;;3.30;2.13;;;11.60;99.90;;;;;;4841513;29;20050;-66
2022/07/27 03:08:21;;;;;;;3.55;2.13;;;11.60;99.90;;;;;;4839865;29;20136;-66
2022/07/27 03:10:47;;;;;;;4.18;2.10;;;11.60;99.90;;;;;;4842365;29;20495;-66
2022/07/27 03:13:13;;;;;;;5.03;2.33;;;11.50;99.90;;;;;;4841657;29;20484;-66
2022/07/27 03:15:38;;;;;;;3.00;2.10;;;11.50;99.90;;;;;;4842231;29;20097;-66
2022/07/27 03:18:04;;;;;;;3.25;2.22;;;11.50;99.90;;;;;;4840130;29;20053;-66
2022/07/27 03:20:30;;;;;;;3.95;2.13;;;11.40;99.90;;;;;;4839569;29;20094;-66
2022/07/27 03:22:55;;;;;;;3.53;2.17;;;11.40;99.90;;;;;;4842909;29;20095;-66
2022/07/27 03:25:21;;;;;;;5.38;2.38;;;11.40;99.90;;;;;;4842307;29;20042;-66
2022/07/27 03:27:47;;;;;;;5.22;2.17;;;11.40;99.90;;;;;;4826806;29;20144;-67
2022/07/27 03:30:12;;;;;;;3.20;2.00;;;11.40;99.90;;;;;;4839702;29;20110;-65
2022/07/27 03:32:38;;;;;;;3.40;1.92;;;11.30;99.90;;;;;;4840109;29;20488;-65
2022/07/27 03:35:04;;;;;;;4.25;2.30;;;11.30;99.90;;;;;;4839305;29;20132;-65
2022/07/27 03:37:30;;;;;;;4.22;2.17;;;11.30;99.90;;;;;;4842655;29;20053;-65
2022/07/27 03:39:55;;;;;;;3.00;2.30;;;11.30;99.90;;;;;;4841907;29;20525;-66
2022/07/27 03:42:21;;;;;;;3.22;2.22;;;11.30;99.90;;;;;;4841203;29;20046;-65
2022/07/27 03:44:46;;;;;;;3.75;2.22;;;11.30;99.90;;;;;;4841468;29;20504;-66
2022/07/27 03:47:12;;;;;;;4.93;2.35;;;11.30;99.90;;;;;;4838908;29;20062;-66
2022/07/27 03:49:37;;;;;;;4.32;2.28;;;11.20;99.90;;;;;;4843140;29;20050;-66
2022/07/27 03:52:03;;;;;;;4.38;2.30;;;11.30;99.90;;;;;;4841152;29;20349;-66
2022/07/27 03:54:29;;;;;;;3.17;2.05;;;11.30;99.90;;;;;;4841921;29;20049;-65
2022/07/27 03:56:54;;;;;;;4.50;2.25;;;11.20;99.90;;;;;;4855079;29;20054;-65
2022/07/27 03:59:20;;;;;;;4.28;2.17;;;11.30;99.90;;;;;;4842047;29;20534;-65
2022/07/27 04:01:46;;;;;;;2.92;2.00;;;11.30;99.90;;;;;;4838550;29;20062;-66
2022/07/27 04:04:12;;;;;;;4.35;2.47;;;11.30;99.90;;;;;;4838778;29;20054;-66
2022/07/27 04:06:37;;;;;;;5.20;2.25;;;11.30;99.90;;;;;;4841227;29;20060;-65
2022/07/27 04:09:03;;;;;;;3.55;2.22;;;11.40;99.90;;;;;;4840347;29;20054;-65
2022/07/27 04:11:29;;;;;;;3.17;2.10;;;11.40;99.90;;;;;;4839661;29;20412;-65
2022/07/27 04:13:54;;;;;;;3.38;2.20;;;11.50;99.90;;;;;;4840475;29;20484;-65
2022/07/27 04:16:20;;;;;;;3.10;1.95;;;11.50;99.90;;;;;;4840212;29;20104;-65
2022/07/27 04:18:45;;;;;;;3.17;2.47;;;11.50;99.90;;;;;;4841730;29;20118;-66
2022/07/27 04:21:12;;;;;;;4.50;2.35;;;11.60;99.90;;;;;;4841464;29;20053;-66
2022/07/27 04:23:37;;;;;;;3.28;2.33;;;11.60;99.90;;;;;;4842648;29;20136;-66
2022/07/27 04:26:03;;;;;;;6.25;3.30;;;11.70;99.90;;;;;;4838619;29;20162;-65
2022/07/27 04:28:28;;;;;;;3.38;2.10;;;11.80;99.90;;;;;;4838313;29;20045;-65
2022/07/27 04:30:54;;;;;;;5.22;2.45;;;11.80;99.90;;;;;;4839956;29;20118;-66
2022/07/27 04:33:19;;;;;;;3.65;2.60;;;11.90;99.90;;;;;;4840934;29;20053;-65
2022/07/27 04:35:45;;;;;;;7.07;3.17;;;11.90;99.90;;;;;;4840117;29;20056;-66
2022/07/27 04:38:11;;;;;;;3.60;2.30;;;12.00;99.90;;;;;;4841220;29;20042;-65
2022/07/27 04:40:36;;;;;;;6.15;2.50;;;12.10;99.90;;;;;;4839486;29;20137;-66
2022/07/27 04:43:03;;;;;;;5.85;2.50;;;12.20;99.90;;;;;;4839235;29;20049;-65
2022/07/27 04:45:29;;;;;;;3.95;2.22;;;12.20;99.90;;;;;;4841929;29;20057;-65
2022/07/27 04:47:55;;;;;;;5.28;2.40;;;12.30;99.90;;;;;;4841101;29;20078;-66
2022/07/27 04:50:21;;;;;;;3.55;2.47;;;12.30;99.90;;;;;;4841902;29;20093;-66
2022/07/27 04:52:47;;;;;;;3.78;2.22;;;12.40;99.90;;;;;;4840224;29;20054;-66
2022/07/27 04:55:12;;;;;;;5.10;2.60;;;12.50;99.90;;;;;;4840666;29;20061;-65
2022/07/27 04:57:40;;;;;;;6.10;2.78;;;12.60;99.90;;;;;;4840161;29;20057;-66
2022/07/27 05:00:08;;;;;;;3.97;2.60;;;12.60;99.90;;;;;;4830044;29;20074;-66
2022/07/27 05:02:33;;;;;;;7.00;2.58;;;12.70;99.90;;;;;;4821721;29;20063;-66
2022/07/27 05:04:59;;;;;;;6.70;2.50;;;12.80;99.90;;;;;;4803942;29;20053;-67
2022/07/27 05:15:50;;;;;;;4.45;2.42;;;12.90;99.90;;;;;;4815764;29;20614;-66
2022/07/27 05:18:17;;;;;;;6.18;2.17;;;13.00;99.90;;;;;;4802949;29;20043;-66
2022/07/27 05:20:46;;;;;;;5.25;2.10;;;13.00;99.90;;;;;;4817837;29;20462;-66
2022/07/27 05:23:44;;;;;;;3.38;2.30;;;13.00;99.90;;;;;;4822683;29;20294;-66
2022/07/27 05:30:25;;;;;;;9.13;2.42;;;13.20;99.90;;;;;;4831796;29;20235;-66
2022/07/27 05:45:10;;;;;;;6.25;1.85;;;13.60;99.90;;;;;;4832129;29;20041;-67
2022/07/27 05:47:36;;;;;;;3.72;2.47;;;13.70;99.90;;;;;;4828129;29;20054;-67
2022/07/27 05:50:02;;;;;;;5.95;2.78;;;13.80;99.90;;;;;;4845055;29;20170;-66
2022/07/27 05:52:27;;;;;;;4.47;2.03;;;13.80;99.90;;;;;;4844509;29;20065;-66
2022/07/27 05:54:53;;;;;;;3.97;1.95;;;13.80;99.90;;;;;;4814568;29;20059;-67
2022/07/27 05:57:18;;;;;;;5.88;2.22;;;13.90;99.90;;;;;;4825872;29;20034;-67
2022/07/27 05:59:44;;;;;;;3.83;2.20;;;13.90;99.90;;;;;;4835559;29;20061;-67
2022/07/27 06:02:10;;;;;;;4.10;2.08;;;14.00;99.90;;;;;;4843823;29;20053;-68
2022/07/27 06:04:35;;;;;;;3.78;1.65;;;13.90;99.90;;;;;;4844164;29;20050;-67
2022/07/27 06:09:45;;;;;;;6.00;2.20;;;14.10;99.90;;;;;;4843385;29;20069;-68
2022/07/27 06:12:11;;;;;;;4.55;2.00;;;14.10;99.90;;;;;;4842812;29;20380;-68
2022/07/27 06:14:37;;;;;;;5.70;2.15;;;14.20;99.90;;;;;;4844605;29;20054;-67
2022/07/27 06:17:02;;;;;;;4.88;2.00;;;14.30;99.90;;;;;;4844194;29;20109;-68
2022/07/27 06:19:30;;;;;;;5.30;1.90;;;14.30;99.90;;;;;;4844100;29;20058;-66
2022/07/27 06:21:56;;;;;;;5.15;2.00;;;14.40;99.90;;;;;;4844007;29;20054;-67
2022/07/27 06:24:23;;;;;;;5.32;2.20;;;14.40;99.90;;;;;;4842446;29;20164;-68
2022/07/27 06:26:49;;;;;;;5.10;2.08;;;14.50;99.90;;;;;;4842689;29;20065;-67
2022/07/27 06:29:14;;;;;;;6.47;2.20;;;14.50;99.90;;;;;;4844244;29;20531;-69
2022/07/27 06:31:40;;;;;;;5.40;2.08;;;14.60;99.90;;;;;;4843792;29;20065;-68
2022/07/27 06:34:06;;;;;;;4.15;2.28;;;14.70;99.90;;;;;;4843368;29;20058;-67
2022/07/27 06:36:31;;;;;;;2.42;1.90;;;14.80;99.90;;;;;;4842095;29;20484;-66
2022/07/27 06:38:57;;;;;;;5.30;1.98;;;14.80;99.90;;;;;;4840276;29;20049;-66
2022/07/27 06:41:22;;;;;;;6.68;2.25;;;14.90;99.90;;;;;;4843199;29;20416;-66
2022/07/27 06:43:48;;;;;;;2.70;1.90;;;14.90;99.90;;;;;;4843460;29;20050;-66
2022/07/27 06:46:14;;;;;;;3.80;2.08;;;15.00;99.90;;;;;;4843361;29;20426;-66
2022/07/27 06:48:40;;;;;;;3.75;1.65;;;15.10;99.90;;;;;;4842611;29;20058;-66
2022/07/27 06:51:06;;;;;;;3.67;1.70;;;15.10;99.90;;;;;;4840426;29;20070;-66
2022/07/27 06:53:32;;;;;;;3.22;1.80;;;15.20;99.90;;;;;;4843491;29;20064;-66
2022/07/27 06:56:02;;;;;;;4.65;1.52;;;15.40;99.90;;;;;;4840837;29;20058;-66
2022/07/27 06:58:32;;;;;;;5.32;1.50;;;15.50;99.90;;;;;;4842782;29;20046;-66
2022/07/27 07:00:58;;;;;;;6.05;1.83;;;15.60;99.90;;;;;;4840809;29;20389;-66
2022/07/27 07:03:24;;;;;;;2.15;1.23;;;15.70;99.90;;;;;;4842275;29;20061;-66
2022/07/27 07:05:49;;;;;;;3.92;1.40;;;15.70;99.90;;;;;;4840528;29;20050;-65
2022/07/27 07:08:15;;;;;;;2.75;1.60;;;15.80;99.90;;;;;;4840120;29;20065;-65
2022/07/27 07:10:49;;;;;;;5.68;1.90;;;15.80;99.90;;;;;;4840413;29;20058;-64
2022/07/27 07:13:15;;;;;;;4.47;1.70;;;15.80;99.90;;;;;;4825013;29;20174;-65
2022/07/27 07:15:42;;;;;;;2.92;1.33;;;16.00;99.90;;;;;;4827369;29;20080;-65
2022/07/27 07:21:15;;;;;;;4.80;1.23;;;16.40;99.90;;;;;;4842870;29;20054;-65
2022/07/27 07:27:47;;;;;;;4.95;1.33;;;16.70;99.90;;;;;;4842887;29;20406;-65
2022/07/27 07:38:51;;;;;;;2.92;1.25;;;16.90;99.90;;;;;;4823301;29;20427;-64
2022/07/27 07:41:16;;;;;;;5.03;1.02;;;17.00;99.90;;;;;;4823098;29;20083;-65
2022/07/27 07:47:52;;;;;;;3.80;1.25;;;17.30;99.90;;;;;;4842688;29;20046;-66
2022/07/27 07:50:18;;;;;;;3.53;1.10;;;17.40;99.90;;;;;;4842497;29;20083;-66
2022/07/27 07:52:46;;;;;;;3.83;1.02;;;17.60;99.90;;;;;;4842296;29;20057;-66
2022/07/27 07:55:12;;;;;;;4.90;1.17;;;17.80;99.90;;;;;;4842751;29;20409;-66
2022/07/27 07:57:37;;;;;;;2.92;1.38;;;18.00;99.90;;;;;;4842454;29;20054;-65
2022/07/27 08:00:05;;;;;;;4.55;1.13;;;18.10;99.90;;;;;;4841595;29;20054;-66
2022/07/27 08:02:31;;;;;;;4.90;1.08;;;18.10;99.90;;;;;;4842272;29;20058;-65
2022/07/27 08:04:56;;;;;;;2.90;1.08;;;18.20;99.90;;;;;;4842557;29;20057;-65
2022/07/27 08:07:22;;;;;;;3.20;1.20;;;18.30;99.90;;;;;;4840600;29;20062;-66
2022/07/27 08:09:47;;;;;;;2.38;1.02;;;18.30;99.90;;;;;;4842221;29;20141;-66
2022/07/27 08:12:13;;;;;;;2.65;1.10;;;18.10;99.90;;;;;;4841884;29;20093;-66
2022/07/27 08:14:38;;;;;;;2.13;0.60;;;18.10;99.90;;;;;;4825525;29;20054;-66
2022/07/27 08:17:04;;;;;;;3.30;1.13;;;18.10;99.90;;;;;;4840624;29;20169;-66
2022/07/27 08:19:30;;;;;;;4.75;1.10;;;18.20;99.90;;;;;;4856231;29;20057;-65
2022/07/27 08:21:55;;;;;;;2.92;1.13;;;18.30;99.90;;;;;;4841585;29;20085;-65
2022/07/27 08:24:21;;;;;;;2.85;1.10;;;18.40;99.90;;;;;;4840879;29;20054;-65
2022/07/27 08:26:47;;;;;;;3.88;1.17;;;18.60;99.90;;;;;;4842277;29;20278;-65
2022/07/27 08:29:12;;;;;;;5.22;1.48;;;18.70;99.90;;;;;;4840977;29;20388;-65
2022/07/27 08:31:38;;;;;;;1.13;0.80;;;19.00;99.90;;;;;;4842692;29;20433;-66
2022/07/27 08:34:04;;;;;;;5.15;0.90;;;19.00;99.90;;;;;;4842002;29;20057;-67
2022/07/27 08:36:29;;;;;;;3.22;0.95;;;19.20;99.90;;;;;;4841472;29;20069;-65
2022/07/27 08:38:55;;;;;;;2.65;1.00;;;19.50;99.90;;;;;;4841206;29;20053;-65
2022/07/27 08:41:24;;;;;;;3.08;1.00;;;19.80;99.90;;;;;;4842265;29;20119;-65
2022/07/27 08:43:51;;;;;;;3.45;1.10;;;19.80;99.90;;;;;;4842061;29;20404;-65
2022/07/27 08:46:17;;;;;;;2.80;1.27;;;19.40;99.90;;;;;;4841840;29;20050;-65
2022/07/27 08:48:43;;;;;;;3.85;1.13;;;19.20;99.90;;;;;;4841838;29;20102;-65
2022/07/27 08:51:10;;;;;;;2.20;0.90;;;19.10;99.90;;;;;;4841258;29;20054;-65
2022/07/27 08:53:36;;;;;;;2.78;1.17;;;19.20;99.90;;;;;;4841562;29;20104;-65
2022/07/27 08:56:02;;;;;;;2.88;1.27;;;19.30;99.90;;;;;;4840816;29;20062;-65
2022/07/27 08:58:28;;;;;;;4.82;1.30;;;19.60;99.90;;;;;;4842093;29;20057;-65
2022/07/27 09:00:54;;;;;;;2.42;1.20;;;19.80;99.90;;;;;;4841227;29;20591;-65
2022/07/27 09:03:22;;;;;;;4.05;1.40;;;19.90;99.90;;;;;;4842461;29;20050;-65
2022/07/27 09:05:53;;;;;;;3.95;1.45;;;19.90;99.90;;;;;;4841806;29;20061;-66
2022/07/27 09:08:25;;;;;;;3.05;1.00;;;19.80;99.90;;;;;;4841495;29;20050;-66
2022/07/27 09:10:53;;;;;;;4.75;1.02;;;19.70;99.90;;;;;;4841284;29;20112;-66
2022/07/27 09:13:22;;;;;;;1.80;1.05;;;19.50;99.90;;;;;;4837923;29;20495;-66
2022/07/27 09:15:50;;;;;;;3.55;1.00;;;19.20;99.90;;;;;;4825056;29;20081;-66
2022/07/27 09:18:19;;;;;;;4.85;1.23;;;19.00;99.90;;;;;;4857594;29;20045;-66
2022/07/27 09:20:45;;;;;;;5.00;1.08;;;18.70;99.90;;;;;;4844160;29;20431;-66
2022/07/27 09:23:10;;;;;;;3.75;1.25;;;18.50;99.90;;;;;;4844809;29;20050;-67
2022/07/27 09:25:37;;;;;;;3.25;0.98;;;18.40;99.90;;;;;;4843595;29;20484;-66
2022/07/27 09:28:03;;;;;;;3.35;1.10;;;18.40;99.90;;;;;;4843762;29;20050;-66
2022/07/27 09:30:28;;;;;;;1.25;0.90;;;18.50;99.90;;;;;;4844922;29;20064;-66
2022/07/27 09:32:59;;;;;;;3.28;0.90;;;18.60;99.90;;;;;;4844851;29;20057;-66
2022/07/27 09:35:33;;;;;;;2.72;1.05;;;18.80;99.90;;;;;;4845313;29;20144;-65
2022/07/27 09:38:16;;;;;;;5.50;1.20;;;18.90;99.90;;;;;;4844783;29;20062;-66
2022/07/27 09:40:42;;;;;;;3.78;1.00;;;19.10;99.90;;;;;;4845170;29;20061;-66
2022/07/27 09:43:12;;;;;;;2.85;1.02;;;19.20;99.90;;;;;;4845090;29;20058;-66
2022/07/27 09:45:42;;;;;;;4.03;1.20;;;19.30;99.90;;;;;;4844379;29;20058;-66
2022/07/27 09:48:17;;;;;;;4.80;1.15;;;19.30;99.90;;;;;;4844870;29;20058;-66
2022/07/27 09:50:53;;;;;;;2.78;0.82;;;19.30;99.90;;;;;;4844216;29;20046;-65
2022/07/27 09:53:21;;;;;;;3.47;0.95;;;19.10;99.90;;;;;;4844754;29;20522;-65
2022/07/27 09:56:08;;;;;;;2.38;0.95;;;19.10;99.90;;;;;;4845311;29;20407;-66
2022/07/27 09:58:46;;;;;;;3.95;1.23;;;19.20;99.90;;;;;;4844429;29;20397;-66
2022/07/27 10:01:16;;;;;;;5.18;0.93;;;19.20;99.90;;;;;;4844180;29;20049;-66
2022/07/27 10:03:43;;;;;;;2.88;1.00;;;19.30;99.90;;;;;;4844992;29;20114;-65
2022/07/27 10:06:11;;;;;;;3.83;0.90;;;19.20;99.90;;;;;;4844183;29;20457;-66
2022/07/27 10:08:43;;;;;;;2.53;0.90;;;19.50;99.90;;;;;;4843638;29;20054;-66
2022/07/27 10:11:11;;;;;;;2.03;0.70;;;19.60;99.90;;;;;;4844128;29;20054;-66
2022/07/27 10:13:37;;;;;;;1.88;0.68;;;19.70;99.90;;;;;;4844750;29;20053;-66
2022/07/27 10:16:05;;;;;;;2.10;0.88;;;19.80;99.90;;;;;;4844785;29;20049;-66
2022/07/27 10:18:51;;;;;;;2.00;0.70;;;19.90;99.90;;;;;;4842828;29;20075;-66
2022/07/27 10:21:17;;;;;;;3.00;0.70;;;20.10;99.90;;;;;;4844274;29;20453;-66
2022/07/27 10:24:23;;;;;;;2.60;0.95;;;20.30;99.90;;;;;;4843438;29;20061;-66
2022/07/27 10:26:49;;;;;;;1.20;0.63;;;20.50;99.90;;;;;;4836893;29;20126;-66
2022/07/27 10:29:20;;;;;;;1.35;0.60;;;20.60;99.90;;;;;;4843741;29;20098;-65
2022/07/27 10:31:57;;;;;;;2.17;0.75;;;20.60;99.90;;;;;;4843506;29;20106;-66
2022/07/27 10:34:51;;;;;;;3.80;1.02;;;20.70;99.90;;;;;;4849960;29;20140;-66
2022/07/27 10:37:25;;;;;;;2.03;0.65;;;20.90;99.90;;;;;;4843113;29;20170;-66
2022/07/27 10:40:37;;;;;;;2.10;0.70;;;21.10;98.80;;;;;;4842057;29;20129;-65
2022/07/27 10:42:46;;;;;;;1.20;0.60;;;21.30;98.90;;;;;;4837058;29;20129;-66
2022/07/27 10:45:16;;;;;;;1.13;0.80;;;21.20;93.20;;;;;;4843610;29;20107;-66
2022/07/27 10:47:44;;;;;;;0.98;0.70;;;21.10;95.80;;;;;;4824440;29;20054;-66
2022/07/27 10:50:15;;;;;;;1.95;0.63;;;20.90;96.80;;;;;;4841990;29;20129;-66
2022/07/27 10:52:47;;;;;;;3.13;0.77;;;20.90;96.20;;;;;;4840231;29;20061;-65
2022/07/27 10:55:31;;;;;;;3.55;0.98;;;20.80;96.60;;;;;;4842044;29;20053;-65
2022/07/27 10:57:59;;;;;;;2.70;0.85;;;20.70;94.90;;;;;;4840161;29;20066;-66
2022/07/27 11:00:49;;;;;;;1.95;0.82;;;20.60;97.40;;;;;;4842576;29;20065;-65
2022/07/27 11:03:24;;;;;;;4.00;1.10;;;20.70;96.50;;;;;;4843180;29;20058;-66
2022/07/27 11:05:58;;;;;;;5.65;0.95;;;20.80;96.20;;;;;;4843047;29;20097;-66
2022/07/27 11:08:29;;;;;;;2.58;1.00;;;20.80;95.10;;;;;;4842556;29;20105;-66
2022/07/27 11:10:55;;;;;;;1.77;0.90;;;20.90;94.80;;;;;;4843668;29;20096;-65
2022/07/27 11:13:22;;;;;;;1.98;0.52;;;20.90;94.00;;;;;;4843509;29;20085;-65
2022/07/27 11:15:56;;;;;;;4.72;0.93;;;21.00;92.70;;;;;;4840360;29;20053;-65
2022/07/27 11:18:36;;;;;;;1.83;0.75;;;21.10;88.40;;;;;;4848561;29;20057;-65
2022/07/27 11:21:20;;;;;;;3.53;0.80;;;21.00;84.80;;;;;;4842635;29;20525;-66
2022/07/27 11:23:48;;;;;;;4.30;0.80;;;21.20;78.00;;;;;;4843325;29;20054;-66
2022/07/27 11:26:15;;;;;;;1.90;0.80;;;21.20;81.80;;;;;;4842424;29;20054;-66
2022/07/27 11:28:41;;;;;;;2.53;1.05;;;21.40;79.00;;;;;;4856743;29;20062;-66
2022/07/27 11:31:09;;;;;;;5.47;1.10;;;21.30;79.00;;;;;;4855502;29;20108;-67
2022/07/27 11:33:35;;;;;;;3.00;1.00;;;21.40;81.00;;;;;;4842132;29;20049;-67
2022/07/27 11:36:04;;;;;;;2.92;0.82;;;21.40;79.60;;;;;;4839405;29;20384;-66
2022/07/27 11:38:44;;;;;;;3.92;0.90;;;21.40;80.80;;;;;;4843165;29;20136;-66
2022/07/27 11:41:12;;;;;;;2.50;0.98;;;21.40;80.30;;;;;;4840065;29;20054;-66
2022/07/27 11:43:40;;;;;;;3.80;0.90;;;21.40;80.10;;;;;;4843132;29;20077;-66
2022/07/27 11:46:14;;;;;;;3.42;0.90;;;21.40;81.20;;;;;;4826790;29;20061;-66
2022/07/27 11:48:48;;;;;;;2.88;0.80;;;21.40;80.80;;;;;;4830540;29;20054;-65
2022/07/27 11:51:15;;;;;;;2.85;0.90;;;21.40;78.30;;;;;;4842283;29;20057;-66
2022/07/27 11:53:41;;;;;;;2.58;0.95;;;21.50;80.20;;;;;;4841485;29;20109;-65
2022/07/27 11:56:07;;;;;;;4.03;0.93;;;21.60;78.00;;;;;;4841486;29;20471;-66
2022/07/27 11:58:33;;;;;;;2.50;0.63;;;21.60;76.40;;;;;;4826353;29;20129;-65
2022/07/27 12:00:59;;;;;;;2.50;0.77;;;21.60;74.40;;;;;;4842395;29;20066;-65
2022/07/27 12:03:28;;;;;;;3.70;0.98;;;21.60;74.70;;;;;;4842786;29;20484;-67
2022/07/27 12:05:58;;;;;;;2.13;0.77;;;21.50;74.90;;;;;;4841617;29;20049;-66
2022/07/27 12:08:24;;;;;;;2.10;0.80;;;21.70;75.40;;;;;;4842291;29;20062;-66
2022/07/27 12:11:05;;;;;;;6.25;1.00;;;21.70;74.80;;;;;;4840649;29;20556;-66
2022/07/27 12:13:32;;;;;;;1.90;0.90;;;21.60;71.00;;;;;;4841932;29;20050;-67
2022/07/27 12:15:58;;;;;;;3.28;0.70;;;21.40;71.90;;;;;;4842242;29;20089;-66
2022/07/27 12:18:24;;;;;;;2.55;1.05;;;21.30;70.60;;;;;;4842742;29;20081;-66
2022/07/27 12:20:50;;;;;;;6.28;0.68;;;21.10;69.30;;;;;;4826035;29;20058;-65
2022/07/27 12:23:16;;;;;;;2.83;0.90;;;21.10;69.80;;;;;;4839555;29;20057;-65
2022/07/27 12:25:42;;;;;;;2.60;0.80;;;21.10;70.00;;;;;;4842050;29;20121;-66
2022/07/27 12:28:11;;;;;;;2.75;0.73;;;21.20;69.80;;;;;;4842145;29;20189;-65
2022/07/27 12:30:40;;;;;;;2.88;0.70;;;21.30;68.90;;;;;;4839467;29;20399;-66
2022/07/27 12:33:23;;;;;;;1.95;0.60;;;21.30;68.60;;;;;;4842635;29;20054;-65
2022/07/27 12:35:49;;;;;;;1.35;0.70;;;21.20;68.00;;;;;;4838840;29;20069;-66
2022/07/27 12:38:15;;;;;;;1.65;0.75;;;21.30;68.00;;;;;;4825020;29;20056;-66
2022/07/27 12:40:52;;;;;;;1.75;0.50;;;21.30;66.80;;;;;;4851670;29;20118;-65
2022/07/27 12:43:23;;;;;;;1.35;0.50;;;21.60;66.10;;;;;;4826165;29;20060;-66
2022/07/27 12:45:51;;;;;;;2.05;0.88;;;21.80;65.00;;;;;;4841634;29;20058;-66
2022/07/27 12:48:19;;;;;;;1.17;0.65;;;21.70;64.20;;;;;;4840667;29;20066;-66
2022/07/27 12:50:56;;;;;;;3.03;0.80;;;21.50;63.80;;;;;;4855182;29;20109;-66
2022/07/27 12:53:22;;;;;;;5.70;1.35;;;21.40;64.00;;;;;;4843243;29;20053;-65
2022/07/27 12:55:48;;;;;;;0.98;0.52;;;21.20;65.40;;;;;;4829034;29;20098;-65
2022/07/27 12:58:13;;;;;;;1.80;0.60;;;21.10;66.00;;;;;;4845589;29;20057;-66
2022/07/27 13:00:40;;;;;;;2.45;0.70;;;21.20;66.70;;;;;;4843887;29;20058;-66
2022/07/27 13:03:06;;;;;;;2.55;0.57;;;21.00;67.00;;;;;;4846034;29;20057;-66
2022/07/27 13:05:33;;;;;;;1.45;0.50;;;21.10;67.10;;;;;;4844141;29;20065;-66
2022/07/27 13:07:59;;;;;;;0.80;0.50;;;21.00;66.00;;;;;;4844982;29;20407;-65
2022/07/27 13:10:25;;;;;;;1.08;0.65;;;21.00;65.20;;;;;;4844724;29;20060;-65
2022/07/27 13:12:51;;;;;;;1.80;0.55;;;21.30;65.10;;;;;;4845505;29;20053;-65
2022/07/27 13:15:18;;;;;;;2.88;0.60;;;21.50;64.50;;;;;;4840651;29;20496;-67
2022/07/27 13:17:45;;;;;;;2.15;0.50;;;21.60;64.30;;;;;;4831621;29;20056;-66
2022/07/27 13:20:12;;;;;;;2.72;0.70;;;21.40;63.80;;;;;;4844552;29;20497;-66
2022/07/27 13:22:39;;;;;;;1.45;0.60;;;21.40;64.60;;;;;;4825648;29;20121;-65
2022/07/27 13:25:05;;;;;;;2.60;0.77;;;21.30;64.50;;;;;;4813900;29;20050;-65
2022/07/27 13:27:31;;;;;;;1.25;0.50;;;21.40;65.30;;;;;;4844224;29;20062;-66
2022/07/27 13:29:58;;;;;;;1.52;0.50;;;21.40;65.30;;;;;;4842639;29;20145;-65
2022/07/27 13:32:25;;;;;;;1.38;0.50;;;21.30;65.30;;;;;;4842400;29;20053;-65
2022/07/27 13:34:51;;;;;;;0.82;0.50;;;21.30;65.50;;;;;;4844135;29;20499;-67
2022/07/27 13:37:16;;;;;;;2.17;0.60;;;21.30;65.00;;;;;;4840825;29;20057;-65
2022/07/27 13:39:42;;;;;;;2.05;0.70;;;21.00;64.00;;;;;;4835855;29;20142;-66